createdAt,value
2023-05-13T00:01:49.848Z,8.20
2023-05-13T00:04:17.264Z,11.05
2023-05-13T00:06:44.463Z,10.05
2023-05-13T00:09:11.676Z,18.63
2023-05-13T00:11:38.715Z,7.55
2023-05-13T00:14:09.556Z,7.60
2023-05-13T00:16:36.773Z,10.77
2023-05-13T00:19:03.962Z,8.43
2023-05-13T00:21:32.132Z,12.90
2023-05-13T00:23:59.242Z,8.25
2023-05-13T00:26:26.536Z,10.57
2023-05-13T00:28:53.570Z,11.65
2023-05-13T00:31:20.799Z,9.55
2023-05-13T00:33:47.944Z,8.38
2023-05-13T00:36:15.148Z,9.38
2023-05-13T00:38:44.017Z,8.93
2023-05-13T00:41:11.161Z,11.00
2023-05-13T00:43:38.257Z,12.18
2023-05-13T00:46:06.161Z,13.60
2023-05-13T00:48:34.250Z,7.95
2023-05-13T00:51:01.297Z,10.90
2023-05-13T00:53:28.424Z,8.20
2023-05-13T00:55:55.792Z,10.10
2023-05-13T00:58:22.947Z,9.65
2023-05-13T01:00:58.706Z,10.18
2023-05-13T01:03:44.615Z,11.68
2023-05-13T01:06:13.886Z,13.52
2023-05-13T01:08:44.931Z,9.27
2023-05-13T01:11:14.870Z,10.60
2023-05-13T01:13:43.526Z,8.18
2023-05-13T01:16:16.752Z,11.82
2023-05-13T01:19:04.121Z,9.43
2023-05-13T01:21:36.602Z,12.65
2023-05-13T01:24:03.713Z,11.15
2023-05-13T01:26:30.962Z,11.25
2023-05-13T01:28:58.054Z,10.10
2023-05-13T01:31:25.486Z,10.18
2023-05-13T01:33:52.799Z,12.25
2023-05-13T01:36:19.927Z,11.90
2023-05-13T01:38:47.775Z,11.25
2023-05-13T01:41:14.898Z,9.07
2023-05-13T01:43:42.012Z,10.98
2023-05-13T01:46:15.084Z,10.35
2023-05-13T01:48:42.153Z,11.85
2023-05-13T01:51:09.985Z,11.48
2023-05-13T01:53:37.004Z,11.20
2023-05-13T01:56:04.125Z,11.23
2023-05-13T01:58:31.237Z,10.13
2023-05-13T02:00:58.300Z,8.90
2023-05-13T02:03:25.513Z,9.80
2023-05-13T02:05:52.945Z,9.50
2023-05-13T02:08:21.691Z,11.77
2023-05-13T02:10:58.200Z,11.40
2023-05-13T02:13:26.210Z,12.80
2023-05-13T02:15:54.022Z,9.68
2023-05-13T02:18:21.189Z,10.00
2023-05-13T02:20:48.643Z,9.57
2023-05-13T02:23:17.135Z,8.57
2023-05-13T02:25:44.780Z,10.93
2023-05-13T02:28:12.105Z,11.80
2023-05-13T02:30:39.122Z,9.55
2023-05-13T02:33:07.477Z,8.75
2023-05-13T02:35:34.728Z,9.60
2023-05-13T02:38:04.387Z,9.70
2023-05-13T02:40:31.634Z,11.07
2023-05-13T02:42:58.758Z,13.90
2023-05-13T02:45:26.032Z,12.98
2023-05-13T02:47:53.132Z,12.85
2023-05-13T02:50:20.488Z,10.02
2023-05-13T02:52:47.958Z,9.20
2023-05-13T02:55:15.143Z,8.30
2023-05-13T02:57:43.192Z,9.85
2023-05-13T03:00:11.179Z,9.15
2023-05-13T03:02:38.498Z,12.43
2023-05-13T03:05:05.896Z,11.48
2023-05-13T03:07:32.994Z,13.10
2023-05-13T03:10:00.061Z,10.55
2023-05-13T03:12:27.270Z,11.57
2023-05-13T03:14:54.362Z,13.68
2023-05-13T03:17:21.577Z,11.65
2023-05-13T03:19:48.694Z,11.25
2023-05-13T03:22:15.790Z,11.95
2023-05-13T03:24:43.213Z,12.15
2023-05-13T03:27:10.384Z,11.20
2023-05-13T03:29:37.485Z,11.75
2023-05-13T03:32:06.458Z,12.63
2023-05-13T03:34:36.186Z,8.90
2023-05-13T03:37:03.472Z,12.65
2023-05-13T03:39:30.716Z,11.13
2023-05-13T03:41:57.788Z,11.52
2023-05-13T03:44:24.924Z,11.25
2023-05-13T03:46:52.060Z,12.10
2023-05-13T03:49:19.187Z,13.55
2023-05-13T03:51:46.229Z,11.75
2023-05-13T03:54:13.358Z,10.93
2023-05-13T03:56:40.605Z,12.05
2023-05-13T03:59:07.699Z,12.70
2023-05-13T04:01:35.485Z,11.63
2023-05-13T04:04:02.598Z,13.00
2023-05-13T04:06:29.673Z,13.52
2023-05-13T04:08:56.735Z,11.95
2023-05-13T04:11:23.845Z,19.40
2023-05-13T04:13:51.089Z,15.27
2023-05-13T04:16:18.292Z,10.30
2023-05-13T04:18:45.501Z,12.60
2023-05-13T04:21:12.612Z,22.23
2023-05-13T04:23:39.693Z,15.68
2023-05-13T04:26:06.862Z,13.75
2023-05-13T04:28:34.756Z,12.80
2023-05-13T04:31:02.888Z,14.00
2023-05-13T04:33:30.038Z,17.13
2023-05-13T04:35:57.083Z,11.35
2023-05-13T04:38:24.224Z,12.77
2023-05-13T04:40:51.395Z,14.00
2023-05-13T04:43:18.517Z,15.48
2023-05-13T04:45:47.808Z,12.68
2023-05-13T04:48:14.904Z,12.40
2023-05-13T04:50:45.635Z,15.65
2023-05-13T04:53:13.102Z,16.63
2023-05-13T04:55:40.266Z,13.27
2023-05-13T04:58:07.489Z,18.50
2023-05-13T05:00:34.691Z,17.67
2023-05-13T05:03:01.877Z,18.83
2023-05-13T05:05:28.975Z,18.63
2023-05-13T05:07:56.091Z,20.02
2023-05-13T05:10:23.384Z,17.25
2023-05-13T05:12:51.478Z,20.30
2023-05-13T05:15:18.558Z,16.75
2023-05-13T05:17:46.184Z,20.45
2023-05-13T05:20:13.623Z,13.20
2023-05-13T05:22:42.195Z,21.88
2023-05-13T05:25:10.298Z,23.25
2023-05-13T05:27:37.378Z,11.63
2023-05-13T05:30:04.789Z,9.88
2023-05-13T05:32:32.037Z,9.30
2023-05-13T05:35:02.034Z,9.32
2023-05-13T05:37:29.967Z,9.25
2023-05-13T05:39:57.061Z,8.15
2023-05-13T05:42:24.123Z,10.00
2023-05-13T05:44:51.266Z,9.15
2023-05-13T05:47:18.351Z,8.88
2023-05-13T05:49:46.473Z,8.07
2023-05-13T05:52:13.705Z,6.43
2023-05-13T05:54:40.777Z,8.57
2023-05-13T05:57:08.955Z,8.35
2023-05-13T05:59:36.056Z,15.20
2023-05-13T06:02:04.310Z,6.72
2023-05-13T06:04:31.522Z,7.00
2023-05-13T06:06:58.792Z,7.00
2023-05-13T06:09:25.873Z,8.60
2023-05-13T06:11:52.964Z,8.63
2023-05-13T06:14:20.042Z,7.75
2023-05-13T06:16:47.056Z,10.18
2023-05-13T06:19:14.189Z,7.97
2023-05-13T06:21:43.097Z,8.15
2023-05-13T06:24:10.490Z,14.65
2023-05-13T06:26:37.750Z,7.50
2023-05-13T06:29:04.855Z,8.80
2023-05-13T06:31:31.987Z,7.85
2023-05-13T06:33:59.085Z,8.48
2023-05-13T06:36:26.257Z,9.20
2023-05-13T06:38:54.514Z,10.05
2023-05-13T06:41:21.607Z,7.07
2023-05-13T06:43:48.934Z,8.27
2023-05-13T06:46:16.247Z,6.50
2023-05-13T06:48:43.431Z,6.90
2023-05-13T06:51:10.509Z,8.02
2023-05-13T06:53:37.615Z,7.65
2023-05-13T06:56:04.774Z,7.28
2023-05-13T06:58:31.876Z,6.95
2023-05-13T07:00:58.930Z,7.85
2023-05-13T07:03:26.136Z,6.88
2023-05-13T07:05:53.294Z,5.93
2023-05-13T07:08:20.392Z,5.80
2023-05-13T07:10:47.526Z,7.65
2023-05-13T07:13:14.898Z,6.05
2023-05-13T07:15:41.992Z,7.93
2023-05-13T07:18:09.427Z,8.35
2023-05-13T07:20:37.114Z,7.18
2023-05-13T07:23:04.260Z,8.27
2023-05-13T07:25:31.328Z,7.00
2023-05-13T07:27:58.674Z,6.28
2023-05-13T07:30:25.983Z,6.68
2023-05-13T07:32:54.032Z,5.20
2023-05-13T07:35:21.578Z,6.40
2023-05-13T07:37:48.823Z,6.70
2023-05-13T07:40:16.048Z,5.93
2023-05-13T07:42:43.133Z,5.55
2023-05-13T07:45:10.514Z,8.25
2023-05-13T07:47:37.672Z,5.25
2023-05-13T07:50:04.906Z,7.15
2023-05-13T07:52:32.630Z,6.93
2023-05-13T07:54:59.795Z,6.55
2023-05-13T07:57:26.999Z,6.43
2023-05-13T07:59:54.189Z,8.20
2023-05-13T08:02:21.553Z,5.65
2023-05-13T08:04:48.689Z,5.22
2023-05-13T08:07:15.943Z,6.10
2023-05-13T08:09:43.068Z,8.02
2023-05-13T08:12:10.388Z,4.75
2023-05-13T08:14:37.623Z,5.65
2023-05-13T08:17:06.183Z,7.53
2023-05-13T08:19:33.255Z,7.30
2023-05-13T08:22:00.364Z,7.25
2023-05-13T08:24:27.748Z,3.80
2023-05-13T08:26:54.891Z,5.03
2023-05-13T08:29:22.003Z,5.35
2023-05-13T08:31:49.119Z,5.55
2023-05-13T08:34:17.034Z,5.53
2023-05-13T08:36:44.250Z,4.68
2023-05-13T08:39:11.372Z,5.20
2023-05-13T08:41:38.928Z,5.35
2023-05-13T08:44:07.022Z,4.82
2023-05-13T08:46:35.020Z,8.77
2023-05-13T08:49:02.145Z,4.25
2023-05-13T08:51:29.309Z,5.28
2023-05-13T08:53:56.919Z,3.17
2023-05-13T08:56:28.150Z,4.07
2023-05-13T08:58:55.459Z,4.60
2023-05-13T09:01:24.017Z,6.70
2023-05-13T09:04:02.636Z,3.88
2023-05-13T09:06:29.748Z,6.95
2023-05-13T09:08:57.120Z,4.15
2023-05-13T09:11:24.408Z,6.53
2023-05-13T09:13:58.811Z,4.38
2023-05-13T09:16:26.996Z,5.18
2023-05-13T09:19:04.799Z,4.53
2023-05-13T09:21:33.094Z,3.85
2023-05-13T09:24:11.372Z,5.40
2023-05-13T09:26:39.042Z,7.32
2023-05-13T09:29:18.169Z,4.07
2023-05-13T09:31:46.629Z,6.13
2023-05-13T09:34:13.811Z,5.68
2023-05-13T09:36:41.783Z,4.00
2023-05-13T09:39:08.891Z,3.53
2023-05-13T09:41:35.995Z,2.97
2023-05-13T09:44:04.443Z,4.28
2023-05-13T09:46:32.637Z,5.97
2023-05-13T09:48:59.767Z,3.55
2023-05-13T09:51:27.495Z,3.05
2023-05-13T09:53:55.728Z,2.72
2023-05-13T09:56:26.644Z,5.60
2023-05-13T09:58:53.920Z,5.38
2023-05-13T10:01:22.172Z,2.75
2023-05-13T10:03:49.350Z,4.55
2023-05-13T10:06:22.397Z,2.58
2023-05-13T10:08:51.849Z,4.25
2023-05-13T10:11:24.164Z,3.65
2023-05-13T10:13:54.961Z,4.18
2023-05-13T10:16:23.340Z,3.28
2023-05-13T10:18:51.527Z,3.85
2023-05-13T10:21:19.900Z,5.85
2023-05-13T10:23:47.594Z,1.98
2023-05-13T10:26:15.101Z,2.80
2023-05-13T10:28:43.738Z,3.70
2023-05-13T10:31:10.769Z,4.18
2023-05-13T10:33:37.850Z,7.07
2023-05-13T10:36:14.276Z,3.72
2023-05-13T10:38:43.452Z,2.70
2023-05-13T10:41:22.830Z,4.93
2023-05-13T10:43:56.788Z,6.53
2023-05-13T10:46:24.573Z,4.25
2023-05-13T10:48:55.708Z,3.70
2023-05-13T10:51:26.229Z,6.97
2023-05-13T10:53:54.416Z,3.67
2023-05-13T10:56:23.154Z,3.35
2023-05-13T10:59:00.547Z,3.25
2023-05-13T11:01:29.756Z,3.65
2023-05-13T11:03:58.475Z,5.60
2023-05-13T11:06:30.278Z,3.63
2023-05-13T11:08:57.354Z,3.67
2023-05-13T11:11:33.182Z,2.50
2023-05-13T11:14:00.365Z,4.05
2023-05-13T11:16:27.583Z,3.42
2023-05-13T11:18:54.809Z,2.80
2023-05-13T11:21:35.771Z,3.55
2023-05-13T11:27:00.488Z,2.90
2023-05-13T11:29:29.681Z,4.22
2023-05-13T11:32:00.263Z,3.03
2023-05-13T11:34:28.340Z,3.95
2023-05-13T11:36:58.503Z,2.30
2023-05-13T11:39:28.912Z,4.60
2023-05-13T11:42:01.453Z,1.58
2023-05-13T11:44:28.999Z,3.22
2023-05-13T11:46:59.192Z,3.47
2023-05-13T11:49:42.749Z,4.70
2023-05-13T11:52:12.618Z,7.18
2023-05-13T11:54:49.473Z,6.88
2023-05-13T11:57:26.496Z,3.97
2023-05-13T11:59:54.599Z,3.08
2023-05-13T12:02:22.866Z,3.35
2023-05-13T12:04:50.712Z,2.65
2023-05-13T12:07:21.982Z,6.30
2023-05-13T12:09:52.584Z,3.22
2023-05-13T12:12:20.933Z,2.35
2023-05-13T12:14:50.345Z,4.10
2023-05-13T12:17:18.404Z,4.75
2023-05-13T12:20:05.337Z,4.10
2023-05-13T12:22:33.112Z,3.88
2023-05-13T12:25:02.657Z,3.53
2023-05-13T12:27:29.872Z,2.35
2023-05-13T12:29:57.145Z,4.13
2023-05-13T12:32:27.257Z,2.72
2023-05-13T12:34:55.189Z,4.40
2023-05-13T12:37:26.168Z,3.88
2023-05-13T12:40:09.531Z,2.13
2023-05-13T12:42:36.810Z,5.05
2023-05-13T12:45:04.268Z,4.63
2023-05-13T12:47:31.407Z,7.75
2023-05-13T12:49:59.011Z,2.28
2023-05-13T12:52:26.373Z,2.58
2023-05-13T12:54:53.443Z,2.60
2023-05-13T12:57:20.680Z,2.92
2023-05-13T12:59:47.855Z,2.42
2023-05-13T13:02:14.986Z,3.42
2023-05-13T13:04:42.115Z,4.05
2023-05-13T13:07:12.630Z,3.88
2023-05-13T13:09:39.829Z,5.43
2023-05-13T13:12:07.075Z,3.28
2023-05-13T13:14:34.126Z,5.07
2023-05-13T13:17:01.273Z,4.82
2023-05-13T13:19:28.333Z,3.28
2023-05-13T13:21:55.499Z,3.70
2023-05-13T13:24:22.662Z,3.45
2023-05-13T13:26:50.119Z,5.30
2023-05-13T13:29:17.180Z,4.60
2023-05-13T13:31:44.433Z,2.55
2023-05-13T13:34:12.085Z,3.58
2023-05-13T13:36:39.142Z,4.65
2023-05-13T13:39:06.238Z,3.35
2023-05-13T13:41:33.314Z,2.83
2023-05-13T13:44:00.405Z,2.55
2023-05-13T13:46:27.619Z,2.67
2023-05-13T13:48:54.794Z,1.98
2023-05-13T13:51:22.075Z,2.72
2023-05-13T13:53:50.758Z,3.33
2023-05-13T13:56:17.913Z,2.60
2023-05-13T13:58:44.946Z,4.55
2023-05-13T14:01:11.999Z,3.35
2023-05-13T14:03:39.279Z,2.83
2023-05-13T14:06:06.555Z,4.75
2023-05-13T14:08:33.758Z,2.67
2023-05-13T14:11:00.789Z,2.03
2023-05-13T14:13:27.915Z,2.80
2023-05-13T14:15:55.101Z,4.07
2023-05-13T14:18:22.283Z,4.35
2023-05-13T14:20:50.346Z,2.58
2023-05-13T14:23:18.389Z,4.32
2023-05-13T14:25:45.481Z,7.25
2023-05-13T14:28:13.275Z,3.30
2023-05-13T14:30:40.314Z,6.15
2023-05-13T14:33:07.435Z,6.65
2023-05-13T14:35:35.198Z,4.55
2023-05-13T14:38:02.234Z,2.50
2023-05-13T14:40:29.377Z,2.65
2023-05-13T14:42:56.395Z,7.05
2023-05-13T14:45:23.474Z,3.60
2023-05-13T14:47:53.721Z,3.75
2023-05-13T14:50:21.465Z,6.00
2023-05-13T14:52:48.797Z,3.47
2023-05-13T14:55:15.968Z,5.30
2023-05-13T14:57:43.310Z,4.68
2023-05-13T15:00:10.920Z,4.47
2023-05-13T15:02:38.233Z,3.45
2023-05-13T15:05:06.193Z,2.35
2023-05-13T15:07:33.333Z,2.10
2023-05-13T15:10:00.532Z,3.90
2023-05-13T15:12:27.596Z,3.08
2023-05-13T15:14:55.002Z,2.45
2023-05-13T15:17:22.349Z,3.17
2023-05-13T15:19:49.587Z,5.13
2023-05-13T15:22:19.485Z,2.15
2023-05-13T15:24:46.589Z,4.07
2023-05-13T15:27:14.261Z,4.30
2023-05-13T15:29:41.384Z,8.02
2023-05-13T15:32:08.485Z,3.40
2023-05-13T15:34:35.495Z,3.45
2023-05-13T15:37:02.554Z,3.10
2023-05-13T15:39:29.652Z,6.43
2023-05-13T15:41:56.820Z,2.95
2023-05-13T15:44:23.986Z,3.55
2023-05-13T15:46:51.255Z,3.58
2023-05-13T15:49:18.356Z,3.20
2023-05-13T15:51:45.668Z,4.13
2023-05-13T15:54:12.843Z,6.53
2023-05-13T15:56:39.999Z,4.40
2023-05-13T15:59:07.158Z,2.35
2023-05-13T16:01:34.294Z,2.33
2023-05-13T16:04:01.439Z,3.70
2023-05-13T16:06:28.553Z,2.20
2023-05-13T16:08:56.617Z,3.22
2023-05-13T16:11:24.676Z,4.22
2023-05-13T16:13:52.689Z,4.30
2023-05-13T16:16:21.155Z,2.13
2023-05-13T16:18:48.475Z,2.22
2023-05-13T16:21:15.735Z,6.05
2023-05-13T16:23:42.912Z,3.97
2023-05-13T16:26:10.124Z,4.20
2023-05-13T16:28:37.212Z,3.60
2023-05-13T16:31:04.333Z,2.70
2023-05-13T16:33:32.374Z,4.43
2023-05-13T16:35:59.468Z,5.30
2023-05-13T16:38:26.582Z,5.45
2023-05-13T16:40:53.716Z,3.90
2023-05-13T16:43:20.946Z,6.47
2023-05-13T16:45:48.170Z,7.50
2023-05-13T16:48:15.575Z,4.72
2023-05-13T16:50:42.693Z,5.05
2023-05-13T16:53:09.824Z,7.50
2023-05-13T16:55:36.949Z,3.08
2023-05-13T16:58:04.119Z,4.65
2023-05-13T17:00:31.250Z,3.70
2023-05-13T17:02:58.472Z,7.82
2023-05-13T17:05:25.752Z,3.92
2023-05-13T17:07:52.807Z,7.35
2023-05-13T17:10:20.018Z,4.25
2023-05-13T17:12:47.214Z,4.80
2023-05-13T17:15:14.337Z,5.15
2023-05-13T17:17:41.540Z,3.15
2023-05-13T17:20:08.970Z,4.30
2023-05-13T17:22:36.059Z,4.13
2023-05-13T17:25:03.153Z,6.30
2023-05-13T17:27:30.268Z,2.85
2023-05-13T17:29:57.402Z,4.68
2023-05-13T17:32:24.494Z,6.15
2023-05-13T17:34:51.625Z,8.02
2023-05-13T17:37:18.684Z,6.90
2023-05-13T17:39:45.801Z,5.00
2023-05-13T17:42:12.896Z,5.18
2023-05-13T17:44:40.025Z,4.90
2023-05-13T17:47:07.311Z,9.50
2023-05-13T17:49:34.454Z,4.80
2023-05-13T17:52:01.537Z,6.90
2023-05-13T17:54:28.603Z,6.22
2023-05-13T17:56:55.696Z,4.10
2023-05-13T17:59:22.866Z,6.10
2023-05-13T18:01:50.821Z,7.50
2023-05-13T18:04:18.918Z,5.90
2023-05-13T18:06:45.992Z,4.85
2023-05-13T18:09:13.063Z,6.18
2023-05-13T18:11:40.190Z,4.88
2023-05-13T18:14:07.777Z,5.78
2023-05-13T18:16:35.014Z,3.50
2023-05-13T18:19:02.338Z,5.95
2023-05-13T18:21:30.793Z,4.13
2023-05-13T18:23:57.983Z,3.28
2023-05-13T18:26:26.538Z,4.28
2023-05-13T18:28:53.814Z,4.78
2023-05-13T18:31:20.940Z,3.55
2023-05-13T18:33:48.025Z,10.95
2023-05-13T18:36:15.454Z,5.18
2023-05-13T18:38:42.573Z,3.70
2023-05-13T18:41:09.696Z,5.80
2023-05-13T18:43:36.835Z,5.47
2023-05-13T18:46:04.003Z,4.13
2023-05-13T18:48:31.071Z,4.57
2023-05-13T18:50:58.168Z,4.75
2023-05-13T18:53:25.417Z,4.78
2023-05-13T18:55:52.508Z,3.03
2023-05-13T18:58:19.616Z,5.80
2023-05-13T19:00:46.848Z,7.13
2023-05-13T19:03:14.255Z,8.27
2023-05-13T19:05:41.669Z,4.25
2023-05-13T19:08:08.748Z,4.88
2023-05-13T19:10:39.938Z,6.00
2023-05-13T19:15:34.626Z,6.50
2023-05-13T19:18:01.854Z,4.15
2023-05-13T19:20:29.795Z,6.50
2023-05-13T19:22:57.192Z,6.90
2023-05-13T19:25:24.440Z,7.15
2023-05-13T19:27:51.613Z,7.65
2023-05-13T19:30:18.750Z,8.15
2023-05-13T19:32:45.894Z,4.82
2023-05-13T19:35:13.097Z,5.20
2023-05-13T19:37:40.329Z,7.00
2023-05-13T19:40:07.709Z,10.68
2023-05-13T19:42:34.853Z,8.48
2023-05-13T19:45:02.216Z,6.22
2023-05-13T19:47:30.538Z,8.88
2023-05-13T19:49:57.695Z,7.28
2023-05-13T19:52:24.770Z,7.57
2023-05-13T19:54:51.834Z,7.78
2023-05-13T19:57:18.959Z,7.82
2023-05-13T19:59:47.484Z,8.57
2023-05-13T20:02:14.698Z,10.20
2023-05-13T20:04:41.803Z,10.05
2023-05-13T20:07:09.448Z,7.82
2023-05-13T20:09:37.065Z,6.57
2023-05-13T20:12:04.583Z,7.72
2023-05-13T20:14:45.306Z,8.75
2023-05-13T20:17:17.356Z,8.85
2023-05-13T20:19:44.879Z,7.10
2023-05-13T20:22:12.128Z,8.77
2023-05-13T20:24:39.393Z,8.73
2023-05-13T20:27:06.829Z,7.63
2023-05-13T20:29:34.988Z,6.40
2023-05-13T20:32:02.309Z,8.13
2023-05-13T20:34:29.556Z,12.93
2023-05-13T20:36:57.215Z,8.40
2023-05-13T20:39:24.773Z,11.77
2023-05-13T20:41:51.916Z,6.95
2023-05-13T20:44:19.237Z,10.02
2023-05-13T20:46:47.097Z,9.55
2023-05-13T20:49:14.432Z,7.50
2023-05-13T20:51:41.853Z,10.05
2023-05-13T20:54:09.459Z,9.63
2023-05-13T20:56:36.632Z,10.43
2023-05-13T20:59:03.764Z,11.73
2023-05-13T21:01:31.351Z,8.18
2023-05-13T21:03:58.761Z,12.77
2023-05-13T21:06:26.224Z,11.73
2023-05-13T21:08:53.356Z,10.05
2023-05-13T21:11:21.349Z,10.50
2023-05-13T21:13:48.657Z,10.10
2023-05-13T21:16:15.903Z,10.30
2023-05-13T21:18:43.086Z,10.98
2023-05-13T21:21:12.822Z,10.85
2023-05-13T21:23:43.045Z,9.65
2023-05-13T21:26:13.462Z,12.98
2023-05-13T21:28:41.194Z,9.23
2023-05-13T21:31:08.574Z,7.80
2023-05-13T21:33:35.922Z,8.40
2023-05-13T21:36:03.067Z,11.40
2023-05-13T21:38:30.533Z,11.23
2023-05-13T21:40:59.074Z,10.30
2023-05-13T21:43:26.134Z,10.52
2023-05-13T21:45:53.316Z,10.55
2023-05-13T21:48:20.951Z,9.80
2023-05-13T21:50:48.223Z,10.05
2023-05-13T21:53:15.397Z,12.80
2023-05-13T21:55:42.457Z,12.50
2023-05-13T21:58:09.588Z,12.40
2023-05-13T22:00:36.682Z,11.30
2023-05-13T22:03:05.902Z,12.90
2023-05-13T22:05:33.341Z,13.75
2023-05-13T22:08:01.747Z,15.40
2023-05-13T22:10:28.912Z,14.25
2023-05-13T22:12:56.042Z,15.38
2023-05-13T22:15:23.186Z,12.40
2023-05-13T22:17:50.967Z,14.45
2023-05-13T22:20:18.423Z,13.90
2023-05-13T22:22:45.572Z,14.43
2023-05-13T22:25:12.625Z,13.43
2023-05-13T22:27:39.721Z,18.75
2023-05-13T22:30:07.178Z,11.80
2023-05-13T22:32:34.359Z,15.63
2023-05-13T22:35:01.520Z,19.60
2023-05-13T22:37:28.596Z,12.18
2023-05-13T22:39:55.725Z,14.27
2023-05-13T22:42:23.161Z,14.70
2023-05-13T22:44:50.295Z,15.23
2023-05-13T22:47:17.419Z,16.73
2023-05-13T22:49:44.436Z,19.17
2023-05-13T22:52:11.561Z,11.90
2023-05-13T22:54:38.606Z,16.83
2023-05-13T22:57:05.860Z,13.55
2023-05-13T22:59:33.032Z,18.23
2023-05-13T23:02:00.198Z,17.83
2023-05-13T23:04:27.509Z,14.35
2023-05-13T23:06:54.607Z,16.08
2023-05-13T23:09:21.688Z,15.75
2023-05-13T23:11:48.804Z,19.38
2023-05-13T23:14:15.872Z,16.27
2023-05-13T23:16:43.007Z,14.73
2023-05-13T23:19:10.232Z,13.98
2023-05-13T23:21:37.407Z,16.92
2023-05-13T23:24:04.633Z,18.85
2023-05-13T23:26:32.234Z,18.27
2023-05-13T23:28:59.309Z,13.95
2023-05-13T23:31:26.531Z,14.65
2023-05-13T23:33:53.609Z,17.50
2023-05-13T23:36:20.704Z,15.65
2023-05-13T23:38:47.829Z,16.33
2023-05-13T23:41:14.968Z,16.35
2023-05-13T23:43:42.057Z,12.60
2023-05-13T23:46:09.563Z,15.07
2023-05-13T23:48:36.637Z,15.98
2023-05-13T23:51:03.738Z,16.90
2023-05-13T23:53:30.829Z,16.98
2023-05-13T23:55:57.974Z,16.88
2023-05-13T23:58:25.088Z,16.73
